sensor_id;sensor_type;location;lat;lon;timestamp;P1;durP1;ratioP1;P2;durP2;ratioP2
55931;SDS011;41837;55.700;37.984;2023-03-04T00:02:23;12.00;;;3.80;;
55931;SDS011;41837;55.700;37.984;2023-03-04T00:04:49;11.70;;;4.18;;
55931;SDS011;41837;55.700;37.984;2023-03-04T00:07:16;15.63;;;4.47;;
55931;SDS011;41837;55.700;37.984;2023-03-04T00:09:43;14.30;;;4.57;;
55931;SDS011;41837;55.700;37.984;2023-03-04T00:12:11;9.73;;;4.40;;
55931;SDS011;41837;55.700;37.984;2023-03-04T00:14:37;11.98;;;4.47;;
55931;SDS011;41837;55.700;37.984;2023-03-04T00:17:03;11.32;;;3.97;;
55931;SDS011;41837;55.700;37.984;2023-03-04T00:19:29;11.93;;;4.60;;
55931;SDS011;41837;55.700;37.984;2023-03-04T00:21:56;10.02;;;4.97;;
55931;SDS011;41837;55.700;37.984;2023-03-04T00:24:22;11.98;;;4.72;;
55931;SDS011;41837;55.700;37.984;2023-03-04T00:26:49;11.68;;;4.47;;
55931;SDS011;41837;55.700;37.984;2023-03-04T00:29:16;10.73;;;5.00;;
55931;SDS011;41837;55.700;37.984;2023-03-04T00:31:42;11.02;;;4.75;;
55931;SDS011;41837;55.700;37.984;2023-03-04T00:34:07;10.38;;;4.88;;
55931;SDS011;41837;55.700;37.984;2023-03-04T00:36:34;14.85;;;4.97;;
55931;SDS011;41837;55.700;37.984;2023-03-04T00:39:00;16.13;;;5.60;;
55931;SDS011;41837;55.700;37.984;2023-03-04T00:41:27;10.95;;;5.32;;
55931;SDS011;41837;55.700;37.984;2023-03-04T00:43:53;10.40;;;5.28;;
55931;SDS011;41837;55.700;37.984;2023-03-04T00:46:19;12.52;;;5.10;;
55931;SDS011;41837;55.700;37.984;2023-03-04T00:48:46;10.85;;;4.60;;
55931;SDS011;41837;55.700;37.984;2023-03-04T00:51:11;11.75;;;5.10;;
55931;SDS011;41837;55.700;37.984;2023-03-04T00:53:37;11.23;;;4.93;;
55931;SDS011;41837;55.700;37.984;2023-03-04T00:56:04;11.18;;;5.00;;
55931;SDS011;41837;55.700;37.984;2023-03-04T00:58:31;14.18;;;5.80;;
55931;SDS011;41837;55.700;37.984;2023-03-04T01:00:57;12.50;;;5.20;;
55931;SDS011;41837;55.700;37.984;2023-03-04T01:03:24;12.48;;;5.18;;
55931;SDS011;41837;55.700;37.984;2023-03-04T01:05:51;11.45;;;5.82;;
55931;SDS011;41837;55.700;37.984;2023-03-04T01:08:17;14.73;;;5.90;;
55931;SDS011;41837;55.700;37.984;2023-03-04T01:10:43;14.43;;;6.07;;
55931;SDS011;41837;55.700;37.984;2023-03-04T01:13:10;11.82;;;5.70;;
55931;SDS011;41837;55.700;37.984;2023-03-04T01:15:36;14.02;;;6.05;;
55931;SDS011;41837;55.700;37.984;2023-03-04T01:18:04;17.65;;;6.68;;
55931;SDS011;41837;55.700;37.984;2023-03-04T01:20:30;12.18;;;6.03;;
55931;SDS011;41837;55.700;37.984;2023-03-04T01:22:56;15.55;;;6.32;;
55931;SDS011;41837;55.700;37.984;2023-03-04T01:25:22;16.08;;;6.40;;
55931;SDS011;41837;55.700;37.984;2023-03-04T01:27:49;12.38;;;5.97;;
55931;SDS011;41837;55.700;37.984;2023-03-04T01:30:17;12.65;;;6.30;;
55931;SDS011;41837;55.700;37.984;2023-03-04T01:32:44;15.60;;;5.97;;
55931;SDS011;41837;55.700;37.984;2023-03-04T01:35:10;14.02;;;6.25;;
55931;SDS011;41837;55.700;37.984;2023-03-04T01:37:36;12.88;;;7.00;;
55931;SDS011;41837;55.700;37.984;2023-03-04T01:40:03;16.35;;;7.40;;
55931;SDS011;41837;55.700;37.984;2023-03-04T01:42:31;18.10;;;7.95;;
55931;SDS011;41837;55.700;37.984;2023-03-04T01:44:59;17.10;;;7.78;;
55931;SDS011;41837;55.700;37.984;2023-03-04T01:47:28;21.10;;;8.60;;
55931;SDS011;41837;55.700;37.984;2023-03-04T01:49:56;17.65;;;8.05;;
55931;SDS011;41837;55.700;37.984;2023-03-04T01:52:24;21.08;;;9.13;;
55931;SDS011;41837;55.700;37.984;2023-03-04T01:54:52;19.70;;;8.73;;
55931;SDS011;41837;55.700;37.984;2023-03-04T01:57:23;22.20;;;9.43;;
55931;SDS011;41837;55.700;37.984;2023-03-04T02:00:10;19.75;;;8.52;;
55931;SDS011;41837;55.700;37.984;2023-03-04T02:02:42;21.40;;;8.50;;
55931;SDS011;41837;55.700;37.984;2023-03-04T02:05:08;21.05;;;9.02;;
55931;SDS011;41837;55.700;37.984;2023-03-04T02:07:35;22.50;;;10.02;;
55931;SDS011;41837;55.700;37.984;2023-03-04T02:10:01;18.88;;;9.52;;
55931;SDS011;41837;55.700;37.984;2023-03-04T02:12:28;22.35;;;10.52;;
55931;SDS011;41837;55.700;37.984;2023-03-04T02:14:54;26.50;;;11.18;;
55931;SDS011;41837;55.700;37.984;2023-03-04T02:17:24;27.27;;;12.65;;
55931;SDS011;41837;55.700;37.984;2023-03-04T02:19:55;26.77;;;12.32;;
55931;SDS011;41837;55.700;37.984;2023-03-04T02:22:31;32.67;;;13.40;;
55931;SDS011;41837;55.700;37.984;2023-03-04T02:25:15;29.23;;;13.30;;
55931;SDS011;41837;55.700;37.984;2023-03-04T02:27:47;32.13;;;14.07;;
55931;SDS011;41837;55.700;37.984;2023-03-04T02:30:18;33.40;;;14.98;;
55931;SDS011;41837;55.700;37.984;2023-03-04T02:32:48;37.70;;;15.68;;
55931;SDS011;41837;55.700;37.984;2023-03-04T02:35:20;37.58;;;16.55;;
55931;SDS011;41837;55.700;37.984;2023-03-04T02:37:46;36.20;;;16.48;;
55931;SDS011;41837;55.700;37.984;2023-03-04T02:40:13;32.90;;;15.23;;
55931;SDS011;41837;55.700;37.984;2023-03-04T02:42:46;41.70;;;17.33;;
55931;SDS011;41837;55.700;37.984;2023-03-04T02:45:35;40.78;;;16.65;;
55931;SDS011;41837;55.700;37.984;2023-03-04T02:48:16;36.78;;;16.58;;
55931;SDS011;41837;55.700;37.984;2023-03-04T02:50:46;37.60;;;14.77;;
55931;SDS011;41837;55.700;37.984;2023-03-04T02:53:15;33.72;;;14.73;;
55931;SDS011;41837;55.700;37.984;2023-03-04T02:55:42;37.60;;;13.73;;
55931;SDS011;41837;55.700;37.984;2023-03-04T02:58:10;35.85;;;14.52;;
55931;SDS011;41837;55.700;37.984;2023-03-04T03:00:38;31.83;;;13.70;;
55931;SDS011;41837;55.700;37.984;2023-03-04T03:03:05;37.50;;;12.77;;
55931;SDS011;41837;55.700;37.984;2023-03-04T03:05:34;30.08;;;13.65;;
55931;SDS011;41837;55.700;37.984;2023-03-04T03:08:02;33.97;;;14.05;;
55931;SDS011;41837;55.700;37.984;2023-03-04T03:10:30;33.38;;;11.82;;
55931;SDS011;41837;55.700;37.984;2023-03-04T03:12:57;30.52;;;13.25;;
55931;SDS011;41837;55.700;37.984;2023-03-04T03:15:23;34.13;;;13.98;;
55931;SDS011;41837;55.700;37.984;2023-03-04T03:17:50;31.33;;;13.00;;
55931;SDS011;41837;55.700;37.984;2023-03-04T03:20:16;32.65;;;14.05;;
55931;SDS011;41837;55.700;37.984;2023-03-04T03:22:42;36.53;;;15.07;;
55931;SDS011;41837;55.700;37.984;2023-03-04T03:25:10;37.47;;;14.57;;
55931;SDS011;41837;55.700;37.984;2023-03-04T03:27:37;31.77;;;13.00;;
55931;SDS011;41837;55.700;37.984;2023-03-04T03:30:04;39.25;;;15.07;;
55931;SDS011;41837;55.700;37.984;2023-03-04T03:32:35;34.50;;;14.90;;
55931;SDS011;41837;55.700;37.984;2023-03-04T03:35:01;32.50;;;13.68;;
55931;SDS011;41837;55.700;37.984;2023-03-04T03:37:28;38.53;;;14.35;;
55931;SDS011;41837;55.700;37.984;2023-03-04T03:39:54;39.60;;;14.68;;
55931;SDS011;41837;55.700;37.984;2023-03-04T03:42:21;37.17;;;14.52;;
55931;SDS011;41837;55.700;37.984;2023-03-04T03:44:47;33.55;;;14.55;;
55931;SDS011;41837;55.700;37.984;2023-03-04T03:47:15;36.67;;;15.27;;
55931;SDS011;41837;55.700;37.984;2023-03-04T03:49:41;37.22;;;14.82;;
55931;SDS011;41837;55.700;37.984;2023-03-04T03:52:08;34.13;;;14.82;;
55931;SDS011;41837;55.700;37.984;2023-03-04T03:54:34;39.90;;;15.25;;
55931;SDS011;41837;55.700;37.984;2023-03-04T03:57:00;34.15;;;13.23;;
55931;SDS011;41837;55.700;37.984;2023-03-04T03:59:26;33.83;;;13.45;;
55931;SDS011;41837;55.700;37.984;2023-03-04T04:01:52;37.92;;;15.13;;
55931;SDS011;41837;55.700;37.984;2023-03-04T04:04:18;35.80;;;14.07;;
55931;SDS011;41837;55.700;37.984;2023-03-04T04:06:44;39.28;;;14.80;;
55931;SDS011;41837;55.700;37.984;2023-03-04T04:09:11;37.97;;;14.00;;
55931;SDS011;41837;55.700;37.984;2023-03-04T04:11:37;35.38;;;13.68;;
55931;SDS011;41837;55.700;37.984;2023-03-04T04:14:03;34.55;;;14.40;;
55931;SDS011;41837;55.700;37.984;2023-03-04T04:16:30;33.95;;;12.65;;
55931;SDS011;41837;55.700;37.984;2023-03-04T04:18:56;31.20;;;12.93;;
55931;SDS011;41837;55.700;37.984;2023-03-04T04:21:22;32.67;;;12.32;;
55931;SDS011;41837;55.700;37.984;2023-03-04T04:23:49;33.28;;;13.73;;
55931;SDS011;41837;55.700;37.984;2023-03-04T04:26:15;29.60;;;12.18;;
55931;SDS011;41837;55.700;37.984;2023-03-04T04:28:41;32.20;;;13.27;;
55931;SDS011;41837;55.700;37.984;2023-03-04T04:31:07;32.22;;;13.60;;
55931;SDS011;41837;55.700;37.984;2023-03-04T04:33:34;34.67;;;14.02;;
55931;SDS011;41837;55.700;37.984;2023-03-04T04:36:00;28.45;;;13.65;;
55931;SDS011;41837;55.700;37.984;2023-03-04T04:38:28;29.38;;;13.15;;
55931;SDS011;41837;55.700;37.984;2023-03-04T04:40:55;32.70;;;13.82;;
55931;SDS011;41837;55.700;37.984;2023-03-04T04:43:23;31.08;;;12.80;;
55931;SDS011;41837;55.700;37.984;2023-03-04T04:45:50;29.48;;;12.50;;
55931;SDS011;41837;55.700;37.984;2023-03-04T04:48:16;26.17;;;12.50;;
55931;SDS011;41837;55.700;37.984;2023-03-04T04:50:43;28.92;;;12.25;;
55931;SDS011;41837;55.700;37.984;2023-03-04T04:53:10;39.70;;;17.63;;
55931;SDS011;41837;55.700;37.984;2023-03-04T04:55:38;27.25;;;12.75;;
55931;SDS011;41837;55.700;37.984;2023-03-04T04:58:05;22.42;;;11.27;;
55931;SDS011;41837;55.700;37.984;2023-03-04T05:00:32;29.70;;;11.93;;
55931;SDS011;41837;55.700;37.984;2023-03-04T05:02:57;26.45;;;12.38;;
55931;SDS011;41837;55.700;37.984;2023-03-04T05:05:24;24.95;;;12.57;;
55931;SDS011;41837;55.700;37.984;2023-03-04T05:07:50;25.80;;;11.90;;
55931;SDS011;41837;55.700;37.984;2023-03-04T05:10:16;24.80;;;11.95;;
55931;SDS011;41837;55.700;37.984;2023-03-04T05:12:43;23.50;;;11.55;;
55931;SDS011;41837;55.700;37.984;2023-03-04T05:15:09;21.75;;;10.15;;
55931;SDS011;41837;55.700;37.984;2023-03-04T05:17:38;24.70;;;11.25;;
55931;SDS011;41837;55.700;37.984;2023-03-04T05:20:05;23.75;;;10.95;;
55931;SDS011;41837;55.700;37.984;2023-03-04T05:22:31;20.35;;;11.15;;
55931;SDS011;41837;55.700;37.984;2023-03-04T05:24:59;22.63;;;10.30;;
55931;SDS011;41837;55.700;37.984;2023-03-04T05:27:25;19.95;;;9.40;;
55931;SDS011;41837;55.700;37.984;2023-03-04T05:29:51;17.63;;;8.20;;
55931;SDS011;41837;55.700;37.984;2023-03-04T05:32:17;18.40;;;8.65;;
55931;SDS011;41837;55.700;37.984;2023-03-04T05:34:43;18.05;;;9.50;;
55931;SDS011;41837;55.700;37.984;2023-03-04T05:37:09;16.65;;;8.73;;
55931;SDS011;41837;55.700;37.984;2023-03-04T05:39:35;16.75;;;8.00;;
55931;SDS011;41837;55.700;37.984;2023-03-04T05:42:01;20.73;;;9.63;;
55931;SDS011;41837;55.700;37.984;2023-03-04T05:44:27;18.33;;;9.25;;
55931;SDS011;41837;55.700;37.984;2023-03-04T05:46:53;15.85;;;9.18;;
55931;SDS011;41837;55.700;37.984;2023-03-04T05:49:20;20.52;;;10.57;;
55931;SDS011;41837;55.700;37.984;2023-03-04T05:51:46;19.90;;;9.30;;
55931;SDS011;41837;55.700;37.984;2023-03-04T05:54:12;16.20;;;8.77;;
55931;SDS011;41837;55.700;37.984;2023-03-04T05:56:38;18.30;;;8.88;;
55931;SDS011;41837;55.700;37.984;2023-03-04T05:59:06;21.23;;;9.80;;
55931;SDS011;41837;55.700;37.984;2023-03-04T06:01:32;19.60;;;10.18;;
55931;SDS011;41837;55.700;37.984;2023-03-04T06:03:59;21.95;;;10.75;;
55931;SDS011;41837;55.700;37.984;2023-03-04T06:06:25;23.08;;;11.45;;
55931;SDS011;41837;55.700;37.984;2023-03-04T06:08:51;26.98;;;12.50;;
55931;SDS011;41837;55.700;37.984;2023-03-04T06:11:18;27.63;;;13.52;;
55931;SDS011;41837;55.700;37.984;2023-03-04T06:13:44;37.92;;;18.27;;
55931;SDS011;41837;55.700;37.984;2023-03-04T06:16:10;30.38;;;14.48;;
55931;SDS011;41837;55.700;37.984;2023-03-04T06:18:36;40.78;;;17.98;;
55931;SDS011;41837;55.700;37.984;2023-03-04T06:21:04;36.97;;;17.10;;
55931;SDS011;41837;55.700;37.984;2023-03-04T06:23:30;29.45;;;15.88;;
55931;SDS011;41837;55.700;37.984;2023-03-04T06:25:57;24.05;;;12.82;;
55931;SDS011;41837;55.700;37.984;2023-03-04T06:28:25;21.10;;;11.00;;
55931;SDS011;41837;55.700;37.984;2023-03-04T06:30:52;22.85;;;11.52;;
55931;SDS011;41837;55.700;37.984;2023-03-04T06:33:20;20.80;;;10.98;;
55931;SDS011;41837;55.700;37.984;2023-03-04T06:35:47;19.52;;;9.70;;
55931;SDS011;41837;55.700;37.984;2023-03-04T06:38:14;20.50;;;10.13;;
55931;SDS011;41837;55.700;37.984;2023-03-04T06:40:40;18.77;;;9.45;;
55931;SDS011;41837;55.700;37.984;2023-03-04T06:43:06;21.63;;;9.70;;
55931;SDS011;41837;55.700;37.984;2023-03-04T06:45:32;19.05;;;8.68;;
55931;SDS011;41837;55.700;37.984;2023-03-04T06:47:58;17.42;;;8.45;;
55931;SDS011;41837;55.700;37.984;2023-03-04T06:50:24;14.45;;;8.38;;
55931;SDS011;41837;55.700;37.984;2023-03-04T06:52:50;19.65;;;9.52;;
55931;SDS011;41837;55.700;37.984;2023-03-04T06:55:16;18.02;;;10.40;;
55931;SDS011;41837;55.700;37.984;2023-03-04T06:57:42;21.90;;;9.98;;
55931;SDS011;41837;55.700;37.984;2023-03-04T07:00:09;20.42;;;11.00;;
55931;SDS011;41837;55.700;37.984;2023-03-04T07:02:36;28.83;;;13.27;;
55931;SDS011;41837;55.700;37.984;2023-03-04T07:05:02;24.45;;;11.75;;
55931;SDS011;41837;55.700;37.984;2023-03-04T07:07:28;21.90;;;10.43;;
55931;SDS011;41837;55.700;37.984;2023-03-04T07:09:54;18.05;;;9.18;;
55931;SDS011;41837;55.700;37.984;2023-03-04T07:12:20;15.15;;;7.85;;
55931;SDS011;41837;55.700;37.984;2023-03-04T07:14:47;16.52;;;8.10;;
55931;SDS011;41837;55.700;37.984;2023-03-04T07:17:13;14.90;;;7.28;;
55931;SDS011;41837;55.700;37.984;2023-03-04T07:19:39;16.45;;;7.95;;
55931;SDS011;41837;55.700;37.984;2023-03-04T07:22:09;15.75;;;8.05;;
55931;SDS011;41837;55.700;37.984;2023-03-04T07:24:35;16.42;;;8.40;;
55931;SDS011;41837;55.700;37.984;2023-03-04T07:27:01;15.48;;;8.02;;
55931;SDS011;41837;55.700;37.984;2023-03-04T07:29:27;16.10;;;7.88;;
55931;SDS011;41837;55.700;37.984;2023-03-04T07:31:53;11.15;;;6.93;;
55931;SDS011;41837;55.700;37.984;2023-03-04T07:34:19;13.32;;;6.40;;
55931;SDS011;41837;55.700;37.984;2023-03-04T07:36:46;14.70;;;6.75;;
55931;SDS011;41837;55.700;37.984;2023-03-04T07:39:12;12.18;;;6.25;;
55931;SDS011;41837;55.700;37.984;2023-03-04T07:41:38;10.02;;;5.95;;
55931;SDS011;41837;55.700;37.984;2023-03-04T07:44:05;13.02;;;6.53;;
55931;SDS011;41837;55.700;37.984;2023-03-04T07:46:33;14.52;;;7.43;;
55931;SDS011;41837;55.700;37.984;2023-03-04T07:48:59;16.10;;;8.50;;
55931;SDS011;41837;55.700;37.984;2023-03-04T07:51:25;11.93;;;6.80;;
55931;SDS011;41837;55.700;37.984;2023-03-04T07:53:53;12.20;;;5.57;;
55931;SDS011;41837;55.700;37.984;2023-03-04T07:56:23;13.60;;;5.22;;
55931;SDS011;41837;55.700;37.984;2023-03-04T07:58:51;12.30;;;5.40;;
55931;SDS011;41837;55.700;37.984;2023-03-04T08:01:25;12.63;;;5.00;;
55931;SDS011;41837;55.700;37.984;2023-03-04T08:03:54;8.00;;;4.63;;
55931;SDS011;41837;55.700;37.984;2023-03-04T08:06:20;9.20;;;3.95;;
55931;SDS011;41837;55.700;37.984;2023-03-04T08:08:46;9.15;;;4.20;;
55931;SDS011;41837;55.700;37.984;2023-03-04T08:11:15;7.28;;;4.10;;
55931;SDS011;41837;55.700;37.984;2023-03-04T08:13:44;11.35;;;4.70;;
55931;SDS011;41837;55.700;37.984;2023-03-04T08:16:11;7.85;;;4.43;;
55931;SDS011;41837;55.700;37.984;2023-03-04T08:18:43;5.95;;;3.72;;
55931;SDS011;41837;55.700;37.984;2023-03-04T08:21:13;8.98;;;4.32;;
55931;SDS011;41837;55.700;37.984;2023-03-04T08:23:41;6.63;;;3.72;;
55931;SDS011;41837;55.700;37.984;2023-03-04T08:26:07;7.05;;;3.55;;
55931;SDS011;41837;55.700;37.984;2023-03-04T08:28:35;6.05;;;3.40;;
55931;SDS011;41837;55.700;37.984;2023-03-04T08:31:02;13.65;;;6.32;;
55931;SDS011;41837;55.700;37.984;2023-03-04T08:33:29;8.02;;;4.50;;
55931;SDS011;41837;55.700;37.984;2023-03-04T08:35:56;7.80;;;3.55;;
55931;SDS011;41837;55.700;37.984;2023-03-04T08:38:22;8.85;;;3.88;;
55931;SDS011;41837;55.700;37.984;2023-03-04T08:40:55;9.38;;;5.28;;
55931;SDS011;41837;55.700;37.984;2023-03-04T08:43:24;11.32;;;5.03;;
55931;SDS011;41837;55.700;37.984;2023-03-04T08:45:52;7.18;;;4.25;;
55931;SDS011;41837;55.700;37.984;2023-03-04T08:48:19;5.07;;;3.13;;
55931;SDS011;41837;55.700;37.984;2023-03-04T08:50:48;5.20;;;2.90;;
55931;SDS011;41837;55.700;37.984;2023-03-04T08:53:15;8.73;;;3.55;;
55931;SDS011;41837;55.700;37.984;2023-03-04T08:55:42;11.18;;;5.53;;
55931;SDS011;41837;55.700;37.984;2023-03-04T08:58:09;10.38;;;5.55;;
55931;SDS011;41837;55.700;37.984;2023-03-04T09:00:36;6.32;;;3.60;;
55931;SDS011;41837;55.700;37.984;2023-03-04T09:03:08;6.20;;;3.50;;
55931;SDS011;41837;55.700;37.984;2023-03-04T09:05:36;6.95;;;4.03;;
55931;SDS011;41837;55.700;37.984;2023-03-04T09:08:05;12.02;;;5.05;;
55931;SDS011;41837;55.700;37.984;2023-03-04T09:10:31;8.88;;;4.13;;
55931;SDS011;41837;55.700;37.984;2023-03-04T09:12:57;6.93;;;3.28;;
55931;SDS011;41837;55.700;37.984;2023-03-04T09:15:24;10.68;;;4.57;;
55931;SDS011;41837;55.700;37.984;2023-03-04T09:17:50;9.55;;;5.00;;
55931;SDS011;41837;55.700;37.984;2023-03-04T09:20:16;10.27;;;4.95;;
55931;SDS011;41837;55.700;37.984;2023-03-04T09:22:43;10.25;;;3.72;;
55931;SDS011;41837;55.700;37.984;2023-03-04T09:25:10;5.18;;;2.55;;
55931;SDS011;41837;55.700;37.984;2023-03-04T09:27:39;5.07;;;2.80;;
55931;SDS011;41837;55.700;37.984;2023-03-04T09:30:05;7.22;;;3.25;;
55931;SDS011;41837;55.700;37.984;2023-03-04T09:32:38;5.45;;;3.28;;
55931;SDS011;41837;55.700;37.984;2023-03-04T09:35:06;7.93;;;3.42;;
55931;SDS011;41837;55.700;37.984;2023-03-04T09:37:35;18.73;;;8.02;;
55931;SDS011;41837;55.700;37.984;2023-03-04T09:40:02;10.63;;;4.78;;
55931;SDS011;41837;55.700;37.984;2023-03-04T09:42:34;9.65;;;4.78;;
55931;SDS011;41837;55.700;37.984;2023-03-04T09:45:10;7.82;;;4.30;;
55931;SDS011;41837;55.700;37.984;2023-03-04T09:47:44;11.50;;;5.45;;
55931;SDS011;41837;55.700;37.984;2023-03-04T09:50:13;5.88;;;4.00;;
55931;SDS011;41837;55.700;37.984;2023-03-04T10:06:59;7.07;;;4.68;;
55931;SDS011;41837;55.700;37.984;2023-03-04T10:12:05;10.85;;;4.10;;
55931;SDS011;41837;55.700;37.984;2023-03-04T10:14:37;9.73;;;4.60;;
55931;SDS011;41837;55.700;37.984;2023-03-04T10:22:34;6.30;;;4.10;;
55931;SDS011;41837;55.700;37.984;2023-03-04T10:25:28;8.30;;;3.50;;
55931;SDS011;41837;55.700;37.984;2023-03-04T10:27:57;8.90;;;3.33;;
55931;SDS011;41837;55.700;37.984;2023-03-04T10:33:14;6.38;;;3.15;;
55931;SDS011;41837;55.700;37.984;2023-03-04T10:35:46;5.55;;;3.47;;
55931;SDS011;41837;55.700;37.984;2023-03-04T10:38:18;8.25;;;3.60;;
55931;SDS011;41837;55.700;37.984;2023-03-04T10:40:46;5.00;;;2.50;;
55931;SDS011;41837;55.700;37.984;2023-03-04T10:43:19;5.03;;;2.42;;
55931;SDS011;41837;55.700;37.984;2023-03-04T10:45:46;4.13;;;2.55;;
55931;SDS011;41837;55.700;37.984;2023-03-04T10:48:17;5.03;;;2.67;;
55931;SDS011;41837;55.700;37.984;2023-03-04T10:50:46;3.88;;;2.70;;
55931;SDS011;41837;55.700;37.984;2023-03-04T10:53:29;6.25;;;2.35;;
55931;SDS011;41837;55.700;37.984;2023-03-04T10:55:58;4.15;;;2.20;;
55931;SDS011;41837;55.700;37.984;2023-03-04T10:58:25;3.25;;;1.92;;
55931;SDS011;41837;55.700;37.984;2023-03-04T11:00:58;5.75;;;2.10;;
55931;SDS011;41837;55.700;37.984;2023-03-04T11:06:03;4.88;;;2.28;;
55931;SDS011;41837;55.700;37.984;2023-03-04T11:08:31;3.75;;;2.10;;
55931;SDS011;41837;55.700;37.984;2023-03-04T11:10:57;4.28;;;2.10;;
55931;SDS011;41837;55.700;37.984;2023-03-04T11:13:24;5.78;;;2.25;;
55931;SDS011;41837;55.700;37.984;2023-03-04T11:15:53;5.43;;;2.55;;
55931;SDS011;41837;55.700;37.984;2023-03-04T11:21:19;8.88;;;2.70;;
55931;SDS011;41837;55.700;37.984;2023-03-04T11:24:05;4.50;;;2.47;;
55931;SDS011;41837;55.700;37.984;2023-03-04T11:27:07;7.07;;;2.90;;
55931;SDS011;41837;55.700;37.984;2023-03-04T11:35:05;7.47;;;3.42;;
55931;SDS011;41837;55.700;37.984;2023-03-04T11:40:41;8.52;;;3.78;;
55931;SDS011;41837;55.700;37.984;2023-03-04T11:53:53;7.82;;;3.90;;
55931;SDS011;41837;55.700;37.984;2023-03-04T11:56:38;6.55;;;3.97;;
55931;SDS011;41837;55.700;37.984;2023-03-04T12:04:40;6.03;;;3.72;;
55931;SDS011;41837;55.700;37.984;2023-03-04T12:09:58;6.03;;;3.55;;
55931;SDS011;41837;55.700;37.984;2023-03-04T12:15:18;9.32;;;3.60;;
55931;SDS011;41837;55.700;37.984;2023-03-04T12:17:59;7.38;;;3.47;;
55931;SDS011;41837;55.700;37.984;2023-03-04T12:26:35;8.43;;;3.75;;
55931;SDS011;41837;55.700;37.984;2023-03-04T12:31:58;9.77;;;5.38;;
55931;SDS011;41837;55.700;37.984;2023-03-04T12:37:22;7.45;;;4.13;;
55931;SDS011;41837;55.700;37.984;2023-03-04T12:42:56;16.40;;;9.40;;
55931;SDS011;41837;55.700;37.984;2023-03-04T12:45:57;14.85;;;7.82;;
55931;SDS011;41837;55.700;37.984;2023-03-04T12:48:40;16.17;;;7.97;;
55931;SDS011;41837;55.700;37.984;2023-03-04T12:51:14;18.42;;;9.40;;
55931;SDS011;41837;55.700;37.984;2023-03-04T12:53:46;12.38;;;7.55;;
55931;SDS011;41837;55.700;37.984;2023-03-04T12:56:33;12.15;;;7.50;;
55931;SDS011;41837;55.700;37.984;2023-03-04T12:59:02;15.75;;;8.38;;
55931;SDS011;41837;55.700;37.984;2023-03-04T13:01:35;13.13;;;6.82;;
55931;SDS011;41837;55.700;37.984;2023-03-04T13:04:14;14.65;;;7.50;;
55931;SDS011;41837;55.700;37.984;2023-03-04T13:07:18;9.77;;;5.80;;
55931;SDS011;41837;55.700;37.984;2023-03-04T13:09:51;12.60;;;5.78;;
55931;SDS011;41837;55.700;37.984;2023-03-04T13:12:24;11.57;;;6.05;;
55931;SDS011;41837;55.700;37.984;2023-03-04T13:20:17;13.73;;;7.43;;
55931;SDS011;41837;55.700;37.984;2023-03-04T13:22:54;21.55;;;12.45;;
55931;SDS011;41837;55.700;37.984;2023-03-04T13:35:57;11.40;;;5.10;;
55931;SDS011;41837;55.700;37.984;2023-03-04T13:45:56;11.35;;;6.10;;
55931;SDS011;41837;55.700;37.984;2023-03-04T13:48:26;10.98;;;6.65;;
55931;SDS011;41837;55.700;37.984;2023-03-04T13:50:56;14.00;;;6.60;;
55931;SDS011;41837;55.700;37.984;2023-03-04T13:53:28;10.98;;;5.47;;
55931;SDS011;41837;55.700;37.984;2023-03-04T13:56:03;10.32;;;5.63;;
55931;SDS011;41837;55.700;37.984;2023-03-04T13:58:37;13.70;;;8.38;;
55931;SDS011;41837;55.700;37.984;2023-03-04T14:01:04;11.20;;;5.72;;
55931;SDS011;41837;55.700;37.984;2023-03-04T14:03:33;15.95;;;7.57;;
55931;SDS011;41837;55.700;37.984;2023-03-04T14:06:09;29.58;;;11.55;;
55931;SDS011;41837;55.700;37.984;2023-03-04T14:08:40;21.88;;;10.50;;
55931;SDS011;41837;55.700;37.984;2023-03-04T14:11:13;18.20;;;8.63;;
55931;SDS011;41837;55.700;37.984;2023-03-04T14:13:44;16.90;;;9.07;;
55931;SDS011;41837;55.700;37.984;2023-03-04T14:16:10;18.92;;;9.93;;
55931;SDS011;41837;55.700;37.984;2023-03-04T14:18:36;18.30;;;8.98;;
55931;SDS011;41837;55.700;37.984;2023-03-04T14:21:03;21.70;;;9.65;;
55931;SDS011;41837;55.700;37.984;2023-03-04T14:23:31;19.83;;;9.13;;
55931;SDS011;41837;55.700;37.984;2023-03-04T14:26:12;22.05;;;9.68;;
55931;SDS011;41837;55.700;37.984;2023-03-04T14:28:47;14.45;;;7.70;;
55931;SDS011;41837;55.700;37.984;2023-03-04T14:31:17;14.70;;;7.07;;
55931;SDS011;41837;55.700;37.984;2023-03-04T14:33:47;15.88;;;7.72;;
55931;SDS011;41837;55.700;37.984;2023-03-04T14:36:16;15.05;;;7.40;;
55931;SDS011;41837;55.700;37.984;2023-03-04T14:38:52;18.77;;;8.98;;
55931;SDS011;41837;55.700;37.984;2023-03-04T14:41:32;19.45;;;10.07;;
55931;SDS011;41837;55.700;37.984;2023-03-04T14:44:44;17.33;;;9.88;;
55931;SDS011;41837;55.700;37.984;2023-03-04T14:46:55;18.50;;;9.00;;
55931;SDS011;41837;55.700;37.984;2023-03-04T14:49:31;18.60;;;9.02;;
55931;SDS011;41837;55.700;37.984;2023-03-04T14:52:00;16.25;;;9.00;;
55931;SDS011;41837;55.700;37.984;2023-03-04T14:54:28;16.55;;;9.20;;
55931;SDS011;41837;55.700;37.984;2023-03-04T14:56:56;19.15;;;10.02;;
55931;SDS011;41837;55.700;37.984;2023-03-04T14:59:33;15.73;;;9.30;;
55931;SDS011;41837;55.700;37.984;2023-03-04T15:02:34;16.05;;;8.57;;
55931;SDS011;41837;55.700;37.984;2023-03-04T15:05:00;17.42;;;9.27;;
55931;SDS011;41837;55.700;37.984;2023-03-04T15:07:42;20.83;;;10.15;;
55931;SDS011;41837;55.700;37.984;2023-03-04T15:10:14;16.45;;;9.35;;
55931;SDS011;41837;55.700;37.984;2023-03-04T15:12:54;16.25;;;9.73;;
55931;SDS011;41837;55.700;37.984;2023-03-04T15:15:36;18.17;;;10.32;;
55931;SDS011;41837;55.700;37.984;2023-03-04T15:20:59;19.98;;;10.93;;
55931;SDS011;41837;55.700;37.984;2023-03-04T15:23:28;20.13;;;10.10;;
55931;SDS011;41837;55.700;37.984;2023-03-04T15:25:56;18.52;;;10.18;;
55931;SDS011;41837;55.700;37.984;2023-03-04T15:28:29;20.30;;;10.88;;
55931;SDS011;41837;55.700;37.984;2023-03-04T15:30:59;21.50;;;10.77;;
55931;SDS011;41837;55.700;37.984;2023-03-04T15:33:25;18.80;;;10.80;;
55931;SDS011;41837;55.700;37.984;2023-03-04T15:35:53;19.52;;;11.18;;
55931;SDS011;41837;55.700;37.984;2023-03-04T15:38:22;20.30;;;10.77;;
55931;SDS011;41837;55.700;37.984;2023-03-04T15:40:49;19.48;;;12.05;;
55931;SDS011;41837;55.700;37.984;2023-03-04T15:43:17;24.58;;;13.05;;
55931;SDS011;41837;55.700;37.984;2023-03-04T15:45:45;24.40;;;12.75;;
55931;SDS011;41837;55.700;37.984;2023-03-04T15:48:14;22.77;;;12.20;;
55931;SDS011;41837;55.700;37.984;2023-03-04T15:50:55;22.83;;;12.75;;
55931;SDS011;41837;55.700;37.984;2023-03-04T15:53:31;20.50;;;12.82;;
55931;SDS011;41837;55.700;37.984;2023-03-04T15:56:02;21.80;;;12.27;;
55931;SDS011;41837;55.700;37.984;2023-03-04T15:58:29;22.95;;;12.35;;
55931;SDS011;41837;55.700;37.984;2023-03-04T16:00:57;24.30;;;13.90;;
55931;SDS011;41837;55.700;37.984;2023-03-04T16:03:23;27.65;;;14.93;;
55931;SDS011;41837;55.700;37.984;2023-03-04T16:05:50;26.52;;;14.68;;
55931;SDS011;41837;55.700;37.984;2023-03-04T16:08:18;27.75;;;14.32;;
55931;SDS011;41837;55.700;37.984;2023-03-04T16:10:46;24.67;;;13.88;;
55931;SDS011;41837;55.700;37.984;2023-03-04T16:13:13;30.27;;;15.82;;